sensor_id;sensor_type;location;lat;lon;timestamp;P1;durP1;ratioP1;P2;durP2;ratioP2
24859;SDS011;12936;52.006;4.350;2023-04-04T00:00:48;4.83;;;2.20;;
24859;SDS011;12936;52.006;4.350;2023-04-04T00:03:18;5.00;;;2.00;;
24859;SDS011;12936;52.006;4.350;2023-04-04T00:05:50;4.13;;;2.17;;
24859;SDS011;12936;52.006;4.350;2023-04-04T00:08:18;5.87;;;2.33;;
24859;SDS011;12936;52.006;4.350;2023-04-04T00:10:47;4.77;;;2.10;;
24859;SDS011;12936;52.006;4.350;2023-04-04T00:13:19;4.77;;;2.07;;
24859;SDS011;12936;52.006;4.350;2023-04-04T00:16:10;3.97;;;1.80;;
24859;SDS011;12936;52.006;4.350;2023-04-04T00:18:38;6.87;;;2.23;;
24859;SDS011;12936;52.006;4.350;2023-04-04T00:21:07;4.20;;;2.07;;
24859;SDS011;12936;52.006;4.350;2023-04-04T00:23:36;3.63;;;2.20;;
24859;SDS011;12936;52.006;4.350;2023-04-04T00:26:05;4.83;;;1.93;;
24859;SDS011;12936;52.006;4.350;2023-04-04T00:28:40;5.20;;;1.83;;
24859;SDS011;12936;52.006;4.350;2023-04-04T00:31:09;5.33;;;2.00;;
24859;SDS011;12936;52.006;4.350;2023-04-04T00:33:37;4.27;;;2.37;;
24859;SDS011;12936;52.006;4.350;2023-04-04T00:36:20;7.53;;;2.50;;
24859;SDS011;12936;52.006;4.350;2023-04-04T00:38:48;3.53;;;2.10;;
24859;SDS011;12936;52.006;4.350;2023-04-04T00:41:17;3.83;;;2.10;;
24859;SDS011;12936;52.006;4.350;2023-04-04T00:43:47;6.97;;;2.53;;
24859;SDS011;12936;52.006;4.350;2023-04-04T00:46:16;6.13;;;2.17;;
24859;SDS011;12936;52.006;4.350;2023-04-04T00:48:45;4.93;;;2.37;;
24859;SDS011;12936;52.006;4.350;2023-04-04T00:51:16;4.47;;;2.00;;
24859;SDS011;12936;52.006;4.350;2023-04-04T00:53:48;6.33;;;2.10;;
24859;SDS011;12936;52.006;4.350;2023-04-04T00:56:17;4.60;;;2.10;;
24859;SDS011;12936;52.006;4.350;2023-04-04T00:58:49;4.10;;;2.33;;
24859;SDS011;12936;52.006;4.350;2023-04-04T01:01:21;6.40;;;2.60;;
24859;SDS011;12936;52.006;4.350;2023-04-04T01:03:51;3.77;;;2.20;;
24859;SDS011;12936;52.006;4.350;2023-04-04T01:06:26;5.67;;;2.43;;
24859;SDS011;12936;52.006;4.350;2023-04-04T01:08:56;5.00;;;2.20;;
24859;SDS011;12936;52.006;4.350;2023-04-04T01:11:24;5.70;;;2.40;;
24859;SDS011;12936;52.006;4.350;2023-04-04T01:14:15;2.53;;;2.10;;
24859;SDS011;12936;52.006;4.350;2023-04-04T01:16:43;5.50;;;2.07;;
24859;SDS011;12936;52.006;4.350;2023-04-04T01:19:14;3.90;;;2.27;;
24859;SDS011;12936;52.006;4.350;2023-04-04T01:21:48;3.97;;;2.03;;
24859;SDS011;12936;52.006;4.350;2023-04-04T01:24:20;4.57;;;2.20;;
24859;SDS011;12936;52.006;4.350;2023-04-04T01:26:51;5.70;;;2.30;;
24859;SDS011;12936;52.006;4.350;2023-04-04T01:29:19;8.17;;;2.43;;
24859;SDS011;12936;52.006;4.350;2023-04-04T01:31:50;5.90;;;2.70;;
24859;SDS011;12936;52.006;4.350;2023-04-04T01:34:23;4.80;;;2.27;;
24859;SDS011;12936;52.006;4.350;2023-04-04T01:37:00;4.17;;;2.30;;
24859;SDS011;12936;52.006;4.350;2023-04-04T01:39:30;6.50;;;2.27;;
24859;SDS011;12936;52.006;4.350;2023-04-04T01:42:04;5.60;;;2.50;;
24859;SDS011;12936;52.006;4.350;2023-04-04T01:44:38;5.17;;;2.50;;
24859;SDS011;12936;52.006;4.350;2023-04-04T01:47:14;3.57;;;2.20;;
24859;SDS011;12936;52.006;4.350;2023-04-04T01:49:42;6.13;;;2.87;;
24859;SDS011;12936;52.006;4.350;2023-04-04T01:52:11;6.70;;;2.80;;
24859;SDS011;12936;52.006;4.350;2023-04-04T01:54:40;8.00;;;2.40;;
24859;SDS011;12936;52.006;4.350;2023-04-04T01:57:13;2.87;;;2.30;;
24859;SDS011;12936;52.006;4.350;2023-04-04T01:59:43;5.13;;;2.47;;
24859;SDS011;12936;52.006;4.350;2023-04-04T02:02:11;3.80;;;2.40;;
24859;SDS011;12936;52.006;4.350;2023-04-04T02:04:40;5.10;;;2.47;;
24859;SDS011;12936;52.006;4.350;2023-04-04T02:07:08;7.13;;;2.60;;
24859;SDS011;12936;52.006;4.350;2023-04-04T02:09:38;5.20;;;2.63;;
24859;SDS011;12936;52.006;4.350;2023-04-04T02:12:06;5.57;;;2.87;;
24859;SDS011;12936;52.006;4.350;2023-04-04T02:14:36;5.40;;;2.60;;
24859;SDS011;12936;52.006;4.350;2023-04-04T02:17:05;4.90;;;2.70;;
24859;SDS011;12936;52.006;4.350;2023-04-04T02:19:34;4.80;;;2.97;;
24859;SDS011;12936;52.006;4.350;2023-04-04T02:22:07;5.40;;;2.60;;
24859;SDS011;12936;52.006;4.350;2023-04-04T02:24:39;4.83;;;2.13;;
24859;SDS011;12936;52.006;4.350;2023-04-04T02:27:07;5.43;;;2.80;;
24859;SDS011;12936;52.006;4.350;2023-04-04T02:29:39;12.33;;;3.10;;
24859;SDS011;12936;52.006;4.350;2023-04-04T02:32:12;5.47;;;3.00;;
24859;SDS011;12936;52.006;4.350;2023-04-04T02:34:40;4.47;;;2.70;;
24859;SDS011;12936;52.006;4.350;2023-04-04T02:37:08;6.83;;;3.33;;
24859;SDS011;12936;52.006;4.350;2023-04-04T02:39:39;5.87;;;2.63;;
24859;SDS011;12936;52.006;4.350;2023-04-04T02:42:07;4.17;;;2.50;;
24859;SDS011;12936;52.006;4.350;2023-04-04T02:44:36;5.67;;;2.60;;
24859;SDS011;12936;52.006;4.350;2023-04-04T02:47:10;6.27;;;2.90;;
24859;SDS011;12936;52.006;4.350;2023-04-04T02:49:38;9.10;;;2.63;;
24859;SDS011;12936;52.006;4.350;2023-04-04T02:52:09;5.53;;;2.90;;
24859;SDS011;12936;52.006;4.350;2023-04-04T02:54:38;7.23;;;3.00;;
24859;SDS011;12936;52.006;4.350;2023-04-04T02:57:16;5.00;;;2.77;;
24859;SDS011;12936;52.006;4.350;2023-04-04T03:00:07;4.43;;;2.60;;
24859;SDS011;12936;52.006;4.350;2023-04-04T03:02:38;5.97;;;3.07;;
24859;SDS011;12936;52.006;4.350;2023-04-04T03:05:09;6.23;;;2.83;;
24859;SDS011;12936;52.006;4.350;2023-04-04T03:07:38;6.67;;;3.20;;
24859;SDS011;12936;52.006;4.350;2023-04-04T03:10:06;7.90;;;3.53;;
24859;SDS011;12936;52.006;4.350;2023-04-04T03:12:36;8.53;;;3.17;;
24859;SDS011;12936;52.006;4.350;2023-04-04T03:15:08;7.10;;;3.70;;
24859;SDS011;12936;52.006;4.350;2023-04-04T03:17:39;8.13;;;3.37;;
24859;SDS011;12936;52.006;4.350;2023-04-04T03:20:10;6.30;;;3.47;;
24859;SDS011;12936;52.006;4.350;2023-04-04T03:22:42;6.63;;;3.40;;
24859;SDS011;12936;52.006;4.350;2023-04-04T03:25:14;6.03;;;3.40;;
24859;SDS011;12936;52.006;4.350;2023-04-04T03:27:43;6.13;;;3.60;;
24859;SDS011;12936;52.006;4.350;2023-04-04T03:30:11;5.90;;;3.67;;
24859;SDS011;12936;52.006;4.350;2023-04-04T03:32:44;7.77;;;3.27;;
24859;SDS011;12936;52.006;4.350;2023-04-04T03:35:12;6.33;;;3.60;;
24859;SDS011;12936;52.006;4.350;2023-04-04T03:37:42;6.57;;;3.17;;
24859;SDS011;12936;52.006;4.350;2023-04-04T03:40:30;7.27;;;3.37;;
24859;SDS011;12936;52.006;4.350;2023-04-04T03:42:59;11.27;;;3.90;;
24859;SDS011;12936;52.006;4.350;2023-04-04T03:45:28;5.80;;;3.00;;
24859;SDS011;12936;52.006;4.350;2023-04-04T03:47:57;6.33;;;3.00;;
24859;SDS011;12936;52.006;4.350;2023-04-04T03:50:26;6.63;;;3.50;;
24859;SDS011;12936;52.006;4.350;2023-04-04T03:52:57;7.33;;;3.53;;
24859;SDS011;12936;52.006;4.350;2023-04-04T03:55:25;6.23;;;3.50;;
24859;SDS011;12936;52.006;4.350;2023-04-04T03:57:53;6.63;;;3.37;;
24859;SDS011;12936;52.006;4.350;2023-04-04T04:00:24;5.83;;;3.53;;
24859;SDS011;12936;52.006;4.350;2023-04-04T04:02:53;6.17;;;3.90;;
24859;SDS011;12936;52.006;4.350;2023-04-04T04:05:28;6.50;;;3.40;;
24859;SDS011;12936;52.006;4.350;2023-04-04T04:07:57;7.13;;;3.97;;
24859;SDS011;12936;52.006;4.350;2023-04-04T04:10:25;7.30;;;3.80;;
24859;SDS011;12936;52.006;4.350;2023-04-04T04:12:53;7.20;;;3.53;;
24859;SDS011;12936;52.006;4.350;2023-04-04T04:15:23;5.33;;;3.60;;
24859;SDS011;12936;52.006;4.350;2023-04-04T04:17:53;9.77;;;3.63;;
24859;SDS011;12936;52.006;4.350;2023-04-04T04:20:22;7.77;;;3.60;;
24859;SDS011;12936;52.006;4.350;2023-04-04T04:22:52;6.57;;;3.73;;
24859;SDS011;12936;52.006;4.350;2023-04-04T04:25:20;4.57;;;2.97;;
24859;SDS011;12936;52.006;4.350;2023-04-04T04:27:49;6.80;;;3.53;;
24859;SDS011;12936;52.006;4.350;2023-04-04T04:30:21;7.83;;;3.80;;
24859;SDS011;12936;52.006;4.350;2023-04-04T04:32:53;7.03;;;3.37;;
24859;SDS011;12936;52.006;4.350;2023-04-04T04:35:21;9.50;;;3.47;;
24859;SDS011;12936;52.006;4.350;2023-04-04T04:37:51;5.17;;;3.20;;
24859;SDS011;12936;52.006;4.350;2023-04-04T04:40:22;6.33;;;3.30;;
24859;SDS011;12936;52.006;4.350;2023-04-04T04:42:51;6.10;;;3.67;;
24859;SDS011;12936;52.006;4.350;2023-04-04T04:45:19;6.37;;;3.73;;
24859;SDS011;12936;52.006;4.350;2023-04-04T04:47:48;5.60;;;3.20;;
24859;SDS011;12936;52.006;4.350;2023-04-04T04:50:16;7.03;;;3.30;;
24859;SDS011;12936;52.006;4.350;2023-04-04T04:52:44;9.23;;;3.33;;
24859;SDS011;12936;52.006;4.350;2023-04-04T04:55:14;8.13;;;4.33;;
24859;SDS011;12936;52.006;4.350;2023-04-04T04:57:42;4.70;;;3.30;;
24859;SDS011;12936;52.006;4.350;2023-04-04T05:00:13;6.77;;;3.77;;
24859;SDS011;12936;52.006;4.350;2023-04-04T05:02:42;4.87;;;3.37;;
24859;SDS011;12936;52.006;4.350;2023-04-04T05:05:10;7.23;;;3.30;;
24859;SDS011;12936;52.006;4.350;2023-04-04T05:07:43;6.80;;;3.43;;
24859;SDS011;12936;52.006;4.350;2023-04-04T05:10:13;5.50;;;4.00;;
24859;SDS011;12936;52.006;4.350;2023-04-04T05:12:41;7.10;;;3.73;;
24859;SDS011;12936;52.006;4.350;2023-04-04T05:15:10;7.87;;;3.87;;
24859;SDS011;12936;52.006;4.350;2023-04-04T05:17:38;6.50;;;3.53;;
24859;SDS011;12936;52.006;4.350;2023-04-04T05:20:07;7.73;;;4.07;;
24859;SDS011;12936;52.006;4.350;2023-04-04T05:22:36;8.17;;;4.43;;
24859;SDS011;12936;52.006;4.350;2023-04-04T05:25:08;8.47;;;3.97;;
24859;SDS011;12936;52.006;4.350;2023-04-04T05:27:37;8.90;;;3.70;;
24859;SDS011;12936;52.006;4.350;2023-04-04T05:30:06;6.50;;;4.10;;
24859;SDS011;12936;52.006;4.350;2023-04-04T05:32:34;8.93;;;4.30;;
24859;SDS011;12936;52.006;4.350;2023-04-04T05:35:06;9.83;;;4.03;;
24859;SDS011;12936;52.006;4.350;2023-04-04T05:37:37;6.13;;;4.00;;
24859;SDS011;12936;52.006;4.350;2023-04-04T05:40:06;8.40;;;4.07;;
24859;SDS011;12936;52.006;4.350;2023-04-04T05:42:35;6.67;;;4.47;;
24859;SDS011;12936;52.006;4.350;2023-04-04T05:45:05;8.00;;;4.07;;
24859;SDS011;12936;52.006;4.350;2023-04-04T05:47:34;8.93;;;4.10;;
24859;SDS011;12936;52.006;4.350;2023-04-04T05:50:02;5.23;;;3.73;;
24859;SDS011;12936;52.006;4.350;2023-04-04T05:52:31;9.77;;;4.07;;
24859;SDS011;12936;52.006;4.350;2023-04-04T05:54:59;7.80;;;3.83;;
24859;SDS011;12936;52.006;4.350;2023-04-04T05:57:28;5.37;;;3.50;;
24859;SDS011;12936;52.006;4.350;2023-04-04T05:59:57;8.27;;;4.13;;
24859;SDS011;12936;52.006;4.350;2023-04-04T06:02:25;6.20;;;4.00;;
24859;SDS011;12936;52.006;4.350;2023-04-04T06:04:54;4.77;;;3.60;;
24859;SDS011;12936;52.006;4.350;2023-04-04T06:07:22;6.13;;;3.67;;
24859;SDS011;12936;52.006;4.350;2023-04-04T06:09:50;8.97;;;4.27;;
24859;SDS011;12936;52.006;4.350;2023-04-04T06:12:18;6.37;;;3.83;;
24859;SDS011;12936;52.006;4.350;2023-04-04T06:14:47;7.77;;;4.10;;
24859;SDS011;12936;52.006;4.350;2023-04-04T06:17:16;4.63;;;3.50;;
24859;SDS011;12936;52.006;4.350;2023-04-04T06:19:44;6.03;;;3.80;;
24859;SDS011;12936;52.006;4.350;2023-04-04T06:22:12;5.47;;;3.47;;
24859;SDS011;12936;52.006;4.350;2023-04-04T06:24:41;7.40;;;3.70;;
24859;SDS011;12936;52.006;4.350;2023-04-04T06:27:09;8.90;;;4.00;;
24859;SDS011;12936;52.006;4.350;2023-04-04T06:29:37;6.77;;;3.87;;
24859;SDS011;12936;52.006;4.350;2023-04-04T06:32:05;5.80;;;3.70;;
24859;SDS011;12936;52.006;4.350;2023-04-04T06:34:35;6.20;;;3.37;;
24859;SDS011;12936;52.006;4.350;2023-04-04T06:37:06;7.27;;;3.67;;
24859;SDS011;12936;52.006;4.350;2023-04-04T06:39:34;6.87;;;4.10;;
24859;SDS011;12936;52.006;4.350;2023-04-04T06:42:02;9.30;;;3.77;;
24859;SDS011;12936;52.006;4.350;2023-04-04T06:44:30;9.63;;;4.00;;
24859;SDS011;12936;52.006;4.350;2023-04-04T06:46:58;6.93;;;3.53;;
24859;SDS011;12936;52.006;4.350;2023-04-04T06:49:27;9.37;;;4.40;;
24859;SDS011;12936;52.006;4.350;2023-04-04T06:51:56;6.47;;;4.00;;
24859;SDS011;12936;52.006;4.350;2023-04-04T06:54:25;9.37;;;3.60;;
24859;SDS011;12936;52.006;4.350;2023-04-04T06:56:53;9.57;;;4.07;;
24859;SDS011;12936;52.006;4.350;2023-04-04T06:59:24;7.67;;;4.00;;
24859;SDS011;12936;52.006;4.350;2023-04-04T07:01:54;7.17;;;4.00;;
24859;SDS011;12936;52.006;4.350;2023-04-04T07:04:23;7.13;;;3.90;;
24859;SDS011;12936;52.006;4.350;2023-04-04T07:06:52;7.83;;;3.40;;
24859;SDS011;12936;52.006;4.350;2023-04-04T07:09:21;7.67;;;3.33;;
24859;SDS011;12936;52.006;4.350;2023-04-04T07:11:55;11.13;;;3.33;;
24859;SDS011;12936;52.006;4.350;2023-04-04T07:14:23;6.90;;;3.80;;
24859;SDS011;12936;52.006;4.350;2023-04-04T07:16:51;10.47;;;3.70;;
24859;SDS011;12936;52.006;4.350;2023-04-04T07:19:20;6.53;;;3.27;;
24859;SDS011;12936;52.006;4.350;2023-04-04T07:21:49;5.03;;;3.60;;
24859;SDS011;12936;52.006;4.350;2023-04-04T07:24:18;6.23;;;3.90;;
24859;SDS011;12936;52.006;4.350;2023-04-04T07:26:48;22.53;;;4.43;;
24859;SDS011;12936;52.006;4.350;2023-04-04T07:29:19;7.83;;;3.53;;
24859;SDS011;12936;52.006;4.350;2023-04-04T07:31:49;7.90;;;3.63;;
24859;SDS011;12936;52.006;4.350;2023-04-04T07:34:17;10.03;;;2.97;;
24859;SDS011;12936;52.006;4.350;2023-04-04T07:36:47;8.77;;;3.40;;
24859;SDS011;12936;52.006;4.350;2023-04-04T07:39:15;9.70;;;3.03;;
24859;SDS011;12936;52.006;4.350;2023-04-04T07:41:43;6.97;;;3.37;;
24859;SDS011;12936;52.006;4.350;2023-04-04T07:44:13;6.60;;;3.47;;
24859;SDS011;12936;52.006;4.350;2023-04-04T07:46:41;5.27;;;3.60;;
24859;SDS011;12936;52.006;4.350;2023-04-04T07:49:11;7.17;;;4.30;;
24859;SDS011;12936;52.006;4.350;2023-04-04T07:51:39;8.20;;;3.20;;
24859;SDS011;12936;52.006;4.350;2023-04-04T07:54:08;9.90;;;3.80;;
24859;SDS011;12936;52.006;4.350;2023-04-04T07:56:36;5.93;;;3.80;;
24859;SDS011;12936;52.006;4.350;2023-04-04T07:59:06;6.83;;;3.00;;
24859;SDS011;12936;52.006;4.350;2023-04-04T08:01:37;7.43;;;3.47;;
24859;SDS011;12936;52.006;4.350;2023-04-04T08:04:07;7.67;;;3.37;;
24859;SDS011;12936;52.006;4.350;2023-04-04T08:06:35;7.93;;;2.97;;
24859;SDS011;12936;52.006;4.350;2023-04-04T08:09:05;7.17;;;2.60;;
24859;SDS011;12936;52.006;4.350;2023-04-04T08:11:34;7.53;;;2.77;;
24859;SDS011;12936;52.006;4.350;2023-04-04T08:14:03;6.20;;;2.43;;
24859;SDS011;12936;52.006;4.350;2023-04-04T08:16:31;4.07;;;2.63;;
24859;SDS011;12936;52.006;4.350;2023-04-04T08:19:01;6.50;;;3.10;;
24859;SDS011;12936;52.006;4.350;2023-04-04T08:21:32;5.17;;;2.40;;
24859;SDS011;12936;52.006;4.350;2023-04-04T08:24:00;5.07;;;1.93;;
24859;SDS011;12936;52.006;4.350;2023-04-04T08:26:30;8.00;;;3.20;;
24859;SDS011;12936;52.006;4.350;2023-04-04T08:29:10;6.47;;;2.60;;
24859;SDS011;12936;52.006;4.350;2023-04-04T08:31:43;4.80;;;2.13;;
24859;SDS011;12936;52.006;4.350;2023-04-04T08:34:13;3.97;;;1.97;;
24859;SDS011;12936;52.006;4.350;2023-04-04T08:36:41;11.40;;;2.70;;
24859;SDS011;12936;52.006;4.350;2023-04-04T08:39:12;5.63;;;2.37;;
24859;SDS011;12936;52.006;4.350;2023-04-04T08:41:41;4.80;;;2.70;;
24859;SDS011;12936;52.006;4.350;2023-04-04T08:44:13;5.77;;;2.73;;
24859;SDS011;12936;52.006;4.350;2023-04-04T08:46:49;7.73;;;2.60;;
24859;SDS011;12936;52.006;4.350;2023-04-04T08:49:20;5.43;;;2.73;;
24859;SDS011;12936;52.006;4.350;2023-04-04T08:51:52;5.43;;;3.10;;
24859;SDS011;12936;52.006;4.350;2023-04-04T08:54:25;4.93;;;2.77;;
24859;SDS011;12936;52.006;4.350;2023-04-04T08:56:57;7.97;;;3.13;;
24859;SDS011;12936;52.006;4.350;2023-04-04T08:59:25;6.87;;;2.80;;
24859;SDS011;12936;52.006;4.350;2023-04-04T09:01:55;4.57;;;2.80;;
24859;SDS011;12936;52.006;4.350;2023-04-04T09:04:28;8.57;;;2.40;;
24859;SDS011;12936;52.006;4.350;2023-04-04T09:06:57;5.00;;;2.20;;
24859;SDS011;12936;52.006;4.350;2023-04-04T09:09:26;6.90;;;2.37;;
24859;SDS011;12936;52.006;4.350;2023-04-04T09:11:55;4.33;;;2.40;;
24859;SDS011;12936;52.006;4.350;2023-04-04T09:14:23;6.37;;;2.50;;
24859;SDS011;12936;52.006;4.350;2023-04-04T09:16:52;4.90;;;2.53;;
24859;SDS011;12936;52.006;4.350;2023-04-04T09:19:21;5.70;;;2.77;;
24859;SDS011;12936;52.006;4.350;2023-04-04T09:21:53;6.37;;;2.53;;
24859;SDS011;12936;52.006;4.350;2023-04-04T09:24:22;3.20;;;2.03;;
24859;SDS011;12936;52.006;4.350;2023-04-04T09:26:50;6.30;;;2.80;;
24859;SDS011;12936;52.006;4.350;2023-04-04T09:29:23;5.60;;;3.00;;
24859;SDS011;12936;52.006;4.350;2023-04-04T09:31:54;5.87;;;2.53;;
24859;SDS011;12936;52.006;4.350;2023-04-04T09:34:22;6.80;;;2.80;;
24859;SDS011;12936;52.006;4.350;2023-04-04T09:36:50;7.20;;;2.83;;
24859;SDS011;12936;52.006;4.350;2023-04-04T09:39:21;5.27;;;2.70;;
24859;SDS011;12936;52.006;4.350;2023-04-04T09:41:50;4.40;;;2.67;;
24859;SDS011;12936;52.006;4.350;2023-04-04T09:44:21;5.10;;;2.63;;
24859;SDS011;12936;52.006;4.350;2023-04-04T09:46:51;5.90;;;2.97;;
24859;SDS011;12936;52.006;4.350;2023-04-04T09:49:19;5.53;;;3.07;;
24859;SDS011;12936;52.006;4.350;2023-04-04T09:51:47;6.57;;;3.23;;
24859;SDS011;12936;52.006;4.350;2023-04-04T09:54:21;5.23;;;3.13;;
24859;SDS011;12936;52.006;4.350;2023-04-04T09:56:55;9.67;;;2.87;;
24859;SDS011;12936;52.006;4.350;2023-04-04T09:59:23;5.77;;;3.00;;
24859;SDS011;12936;52.006;4.350;2023-04-04T10:01:53;6.60;;;3.00;;
24859;SDS011;12936;52.006;4.350;2023-04-04T10:04:21;4.97;;;2.13;;
24859;SDS011;12936;52.006;4.350;2023-04-04T10:06:52;6.33;;;2.50;;
24859;SDS011;12936;52.006;4.350;2023-04-04T10:09:22;5.43;;;2.93;;
24859;SDS011;12936;52.006;4.350;2023-04-04T10:11:50;8.17;;;2.87;;
24859;SDS011;12936;52.006;4.350;2023-04-04T10:14:35;5.00;;;2.50;;
24859;SDS011;12936;52.006;4.350;2023-04-04T10:17:07;5.30;;;2.50;;
24859;SDS011;12936;52.006;4.350;2023-04-04T10:19:36;8.93;;;3.37;;
24859;SDS011;12936;52.006;4.350;2023-04-04T10:22:04;9.20;;;2.67;;
24859;SDS011;12936;52.006;4.350;2023-04-04T10:24:34;6.53;;;3.00;;
24859;SDS011;12936;52.006;4.350;2023-04-04T10:27:02;18.67;;;3.00;;
24859;SDS011;12936;52.006;4.350;2023-04-04T10:29:30;6.33;;;2.60;;
24859;SDS011;12936;52.006;4.350;2023-04-04T10:32:01;4.73;;;2.40;;
24859;SDS011;12936;52.006;4.350;2023-04-04T10:34:34;8.37;;;3.10;;
24859;SDS011;12936;52.006;4.350;2023-04-04T10:37:06;6.53;;;2.83;;
24859;SDS011;12936;52.006;4.350;2023-04-04T10:39:45;4.17;;;2.23;;
24859;SDS011;12936;52.006;4.350;2023-04-04T10:42:18;6.03;;;2.67;;
24859;SDS011;12936;52.006;4.350;2023-04-04T10:44:46;9.17;;;2.77;;
24859;SDS011;12936;52.006;4.350;2023-04-04T10:47:16;6.50;;;2.80;;
24859;SDS011;12936;52.006;4.350;2023-04-04T10:49:45;10.70;;;3.07;;
24859;SDS011;12936;52.006;4.350;2023-04-04T10:52:15;5.17;;;2.77;;
24859;SDS011;12936;52.006;4.350;2023-04-04T10:54:46;5.30;;;3.00;;
24859;SDS011;12936;52.006;4.350;2023-04-04T10:57:17;8.27;;;3.67;;
24859;SDS011;12936;52.006;4.350;2023-04-04T10:59:56;5.47;;;2.90;;
24859;SDS011;12936;52.006;4.350;2023-04-04T11:02:45;6.07;;;3.33;;
24859;SDS011;12936;52.006;4.350;2023-04-04T11:05:19;4.30;;;2.70;;
24859;SDS011;12936;52.006;4.350;2023-04-04T11:07:56;4.67;;;2.80;;
24859;SDS011;12936;52.006;4.350;2023-04-04T11:10:30;7.33;;;2.73;;
24859;SDS011;12936;52.006;4.350;2023-04-04T11:13:01;6.17;;;3.00;;
24859;SDS011;12936;52.006;4.350;2023-04-04T11:15:45;7.07;;;3.13;;
24859;SDS011;12936;52.006;4.350;2023-04-04T11:18:20;5.83;;;3.20;;
24859;SDS011;12936;52.006;4.350;2023-04-04T11:21:00;5.27;;;2.97;;
24859;SDS011;12936;52.006;4.350;2023-04-04T11:23:37;7.10;;;3.00;;
24859;SDS011;12936;52.006;4.350;2023-04-04T11:26:34;4.70;;;3.13;;
24859;SDS011;12936;52.006;4.350;2023-04-04T11:29:05;5.30;;;2.80;;
24859;SDS011;12936;52.006;4.350;2023-04-04T11:31:33;5.23;;;3.03;;
24859;SDS011;12936;52.006;4.350;2023-04-04T11:34:06;6.20;;;2.90;;
24859;SDS011;12936;52.006;4.350;2023-04-04T11:36:47;5.10;;;3.00;;
24859;SDS011;12936;52.006;4.350;2023-04-04T11:39:21;6.27;;;2.90;;
24859;SDS011;12936;52.006;4.350;2023-04-04T11:41:53;6.17;;;3.20;;
24859;SDS011;12936;52.006;4.350;2023-04-04T11:44:24;5.27;;;3.27;;
24859;SDS011;12936;52.006;4.350;2023-04-04T11:46:59;6.27;;;2.90;;
24859;SDS011;12936;52.006;4.350;2023-04-04T11:49:29;7.07;;;3.10;;
24859;SDS011;12936;52.006;4.350;2023-04-04T11:52:02;5.40;;;3.23;;
24859;SDS011;12936;52.006;4.350;2023-04-04T11:54:32;7.50;;;3.10;;
24859;SDS011;12936;52.006;4.350;2023-04-04T11:57:01;5.23;;;3.10;;
24859;SDS011;12936;52.006;4.350;2023-04-04T11:59:31;4.87;;;3.23;;
24859;SDS011;12936;52.006;4.350;2023-04-04T12:02:00;7.20;;;3.70;;
24859;SDS011;12936;52.006;4.350;2023-04-04T12:04:28;6.13;;;3.40;;
24859;SDS011;12936;52.006;4.350;2023-04-04T12:06:56;3.43;;;2.93;;
24859;SDS011;12936;52.006;4.350;2023-04-04T12:09:25;4.50;;;3.33;;
24859;SDS011;12936;52.006;4.350;2023-04-04T12:11:53;5.07;;;3.57;;
24859;SDS011;12936;52.006;4.350;2023-04-04T12:14:30;6.10;;;3.10;;
24859;SDS011;12936;52.006;4.350;2023-04-04T12:17:01;7.07;;;3.17;;
24859;SDS011;12936;52.006;4.350;2023-04-04T12:19:29;5.30;;;3.07;;
24859;SDS011;12936;52.006;4.350;2023-04-04T12:21:57;5.13;;;3.00;;
24859;SDS011;12936;52.006;4.350;2023-04-04T12:24:25;4.50;;;3.10;;
24859;SDS011;12936;52.006;4.350;2023-04-04T12:26:53;6.40;;;2.93;;
24859;SDS011;12936;52.006;4.350;2023-04-04T12:29:24;6.20;;;2.93;;
24859;SDS011;12936;52.006;4.350;2023-04-04T12:31:55;7.23;;;3.23;;
24859;SDS011;12936;52.006;4.350;2023-04-04T12:34:24;10.20;;;3.70;;
24859;SDS011;12936;52.006;4.350;2023-04-04T12:37:00;7.13;;;3.60;;
24859;SDS011;12936;52.006;4.350;2023-04-04T12:39:29;6.63;;;3.70;;
24859;SDS011;12936;52.006;4.350;2023-04-04T12:41:58;7.13;;;3.50;;
24859;SDS011;12936;52.006;4.350;2023-04-04T12:44:28;5.67;;;3.80;;
24859;SDS011;12936;52.006;4.350;2023-04-04T12:46:59;9.93;;;3.57;;
24859;SDS011;12936;52.006;4.350;2023-04-04T12:49:28;5.93;;;3.60;;
24859;SDS011;12936;52.006;4.350;2023-04-04T12:51:57;4.97;;;3.20;;
24859;SDS011;12936;52.006;4.350;2023-04-04T12:54:31;7.23;;;3.50;;
24859;SDS011;12936;52.006;4.350;2023-04-04T12:57:00;7.70;;;3.77;;
24859;SDS011;12936;52.006;4.350;2023-04-04T12:59:31;5.83;;;2.90;;
24859;SDS011;12936;52.006;4.350;2023-04-04T13:02:02;7.47;;;3.40;;
24859;SDS011;12936;52.006;4.350;2023-04-04T13:04:34;9.30;;;3.50;;
24859;SDS011;12936;52.006;4.350;2023-04-04T13:07:03;8.90;;;3.70;;
24859;SDS011;12936;52.006;4.350;2023-04-04T13:09:31;11.43;;;4.30;;
24859;SDS011;12936;52.006;4.350;2023-04-04T13:12:02;6.67;;;3.30;;
24859;SDS011;12936;52.006;4.350;2023-04-04T13:17:25;7.43;;;3.20;;
24859;SDS011;12936;52.006;4.350;2023-04-04T13:20:08;8.57;;;3.60;;
24859;SDS011;12936;52.006;4.350;2023-04-04T13:22:37;5.40;;;3.30;;
24859;SDS011;12936;52.006;4.350;2023-04-04T13:25:06;8.43;;;3.30;;
24859;SDS011;12936;52.006;4.350;2023-04-04T13:27:36;11.30;;;3.73;;
24859;SDS011;12936;52.006;4.350;2023-04-04T13:30:04;7.17;;;3.77;;
24859;SDS011;12936;52.006;4.350;2023-04-04T13:32:38;5.33;;;3.20;;
24859;SDS011;12936;52.006;4.350;2023-04-04T13:35:06;5.83;;;3.00;;
24859;SDS011;12936;52.006;4.350;2023-04-04T13:37:35;6.83;;;3.03;;
24859;SDS011;12936;52.006;4.350;2023-04-04T13:40:03;8.03;;;3.50;;
24859;SDS011;12936;52.006;4.350;2023-04-04T13:42:32;6.97;;;3.30;;
24859;SDS011;12936;52.006;4.350;2023-04-04T13:45:00;6.97;;;3.30;;
24859;SDS011;12936;52.006;4.350;2023-04-04T13:47:28;8.67;;;3.40;;
24859;SDS011;12936;52.006;4.350;2023-04-04T13:49:58;4.33;;;3.20;;
24859;SDS011;12936;52.006;4.350;2023-04-04T13:52:26;7.90;;;3.60;;
24859;SDS011;12936;52.006;4.350;2023-04-04T13:54:54;6.67;;;3.00;;
24859;SDS011;12936;52.006;4.350;2023-04-04T13:57:22;5.23;;;2.77;;
24859;SDS011;12936;52.006;4.350;2023-04-04T13:59:52;6.37;;;2.90;;
24859;SDS011;12936;52.006;4.350;2023-04-04T14:02:21;5.10;;;2.90;;
24859;SDS011;12936;52.006;4.350;2023-04-04T14:04:49;5.23;;;3.23;;
24859;SDS011;12936;52.006;4.350;2023-04-04T14:07:19;5.67;;;3.10;;
24859;SDS011;12936;52.006;4.350;2023-04-04T14:09:47;5.70;;;3.27;;
24859;SDS011;12936;52.006;4.350;2023-04-04T14:12:15;4.88;;;3.25;;
24859;SDS011;12936;52.006;4.350;2023-04-04T14:14:43;5.57;;;2.77;;
24859;SDS011;12936;52.006;4.350;2023-04-04T14:17:11;7.23;;;3.23;;
24859;SDS011;12936;52.006;4.350;2023-04-04T14:19:41;6.43;;;3.53;;
24859;SDS011;12936;52.006;4.350;2023-04-04T14:22:09;5.63;;;2.80;;
24859;SDS011;12936;52.006;4.350;2023-04-04T14:24:38;6.00;;;3.13;;
24859;SDS011;12936;52.006;4.350;2023-04-04T14:27:06;5.55;;;3.22;;
24859;SDS011;12936;52.006;4.350;2023-04-04T14:29:34;5.10;;;2.60;;
24859;SDS011;12936;52.006;4.350;2023-04-04T14:32:02;7.65;;;3.30;;
24859;SDS011;12936;52.006;4.350;2023-04-04T14:34:31;4.30;;;2.78;;
24859;SDS011;12936;52.006;4.350;2023-04-04T14:36:59;8.70;;;3.33;;
24859;SDS011;12936;52.006;4.350;2023-04-04T14:39:27;8.60;;;3.45;;
24859;SDS011;12936;52.006;4.350;2023-04-04T14:41:56;5.10;;;3.03;;
24859;SDS011;12936;52.006;4.350;2023-04-04T14:44:24;6.75;;;3.17;;
24859;SDS011;12936;52.006;4.350;2023-04-04T14:46:52;4.72;;;2.80;;
24859;SDS011;12936;52.006;4.350;2023-04-04T14:49:20;4.85;;;2.65;;
24859;SDS011;12936;52.006;4.350;2023-04-04T14:51:49;5.05;;;2.80;;
24859;SDS011;12936;52.006;4.350;2023-04-04T14:54:18;6.45;;;2.95;;
24859;SDS011;12936;52.006;4.350;2023-04-04T14:56:46;6.35;;;3.00;;
24859;SDS011;12936;52.006;4.350;2023-04-04T14:59:15;5.57;;;2.97;;
24859;SDS011;12936;52.006;4.350;2023-04-04T15:01:43;7.88;;;3.35;;
24859;SDS011;12936;52.006;4.350;2023-04-04T15:04:11;7.88;;;3.22;;
24859;SDS011;12936;52.006;4.350;2023-04-04T15:06:39;7.72;;;3.45;;
24859;SDS011;12936;52.006;4.350;2023-04-04T15:09:08;7.20;;;3.50;;